Time;durP1;ratioP1;P1;durP2;ratioP2;P2;SDS_P1;SDS_P2;PMS_P1;PMS_P2;Temp;Humidity;BMP_temperature;BMP_pressure;BME280_temperature;BME280_humidity;BME280_pressure;Samples;Min_cycle;Max_cycle;Signal;HPM_P1;HPM_P2
2023/06/08 00:00:18;;;;;;;13.80;3.60;;;24.70;47.50;;;;;;6244352;28;20091;-68
2023/06/08 00:03:19;;;;;;;5.57;3.60;;;24.60;47.70;;;;;;6242691;28;20061;-68
2023/06/08 00:06:23;;;;;;;15.45;4.10;;;24.50;47.90;;;;;;6242524;28;20418;-68
2023/06/08 00:09:23;;;;;;;7.57;3.92;;;24.50;48.10;;;;;;6225947;28;20029;-69
2023/06/08 00:12:24;;;;;;;12.85;3.60;;;24.40;48.20;;;;;;6243368;28;20102;-69
2023/06/08 00:15:25;;;;;;;9.13;4.03;;;24.40;48.30;;;;;;6243713;28;20025;-68
2023/06/08 00:18:27;;;;;;;5.07;3.65;;;24.30;48.50;;;;;;6243980;28;20038;-69
2023/06/08 00:21:29;;;;;;;8.23;4.00;;;24.30;48.60;;;;;;6243369;28;20033;-69
2023/06/08 00:24:33;;;;;;;6.40;3.83;;;24.20;48.60;;;;;;6241906;28;20036;-69
2023/06/08 00:27:34;;;;;;;7.75;4.72;;;24.20;48.70;;;;;;6243571;28;20078;-69
2023/06/08 00:30:35;;;;;;;7.80;4.55;;;24.20;48.80;;;;;;6225518;28;20136;-69
2023/06/08 00:33:36;;;;;;;6.68;4.30;;;24.20;48.80;;;;;;6238753;28;20021;-69
2023/06/08 00:36:37;;;;;;;10.27;4.28;;;24.20;48.70;;;;;;6241739;28;20039;-69
2023/06/08 00:39:39;;;;;;;7.28;4.57;;;24.20;48.60;;;;;;6241556;28;20045;-69
2023/06/08 00:42:40;;;;;;;5.97;4.07;;;24.30;48.70;;;;;;6241094;28;20421;-69
2023/06/08 00:45:41;;;;;;;6.60;3.70;;;24.30;48.70;;;;;;6241811;28;20030;-69
2023/06/08 00:48:43;;;;;;;8.15;4.20;;;24.30;48.70;;;;;;6241157;28;20120;-69
2023/06/08 00:51:45;;;;;;;6.70;4.60;;;24.30;48.70;;;;;;6240792;28;20094;-69
2023/06/08 00:54:48;;;;;;;7.35;3.95;;;24.30;48.80;;;;;;6241300;28;20036;-68
2023/06/08 00:57:50;;;;;;;9.13;4.38;;;24.30;48.70;;;;;;6241055;28;20509;-68
2023/06/08 01:00:52;;;;;;;9.90;4.38;;;24.30;48.70;;;;;;6241218;28;20029;-68
2023/06/08 01:03:55;;;;;;;7.15;4.35;;;24.20;48.70;;;;;;6242483;28;20625;-69
2023/06/08 01:07:22;;;;;;;7.53;4.22;;;24.20;48.60;;;;;;6242497;28;20028;-70
2023/06/08 01:10:45;;;;;;;5.95;3.83;;;24.10;48.70;;;;;;6240932;28;20025;-68
2023/06/08 01:14:14;;;;;;;7.40;4.20;;;24.00;48.60;;;;;;6240296;28;20642;-69
2023/06/08 01:17:19;;;;;;;9.45;3.72;;;24.00;48.70;;;;;;6240671;28;20041;-69
2023/06/08 01:20:41;;;;;;;5.25;3.72;;;24.00;48.70;;;;;;6242652;28;20025;-68
2023/06/08 01:24:14;;;;;;;7.13;3.90;;;23.90;48.60;;;;;;6240705;28;20037;-69
2023/06/08 01:27:24;;;;;;;9.32;4.30;;;23.90;48.60;;;;;;6242331;28;20445;-68
2023/06/08 01:30:25;;;;;;;5.70;3.83;;;23.80;48.50;;;;;;6241964;28;20385;-68
2023/06/08 01:33:29;;;;;;;7.70;3.88;;;23.80;48.50;;;;;;6240097;28;20037;-68
2023/06/08 01:36:59;;;;;;;9.85;4.00;;;23.80;48.60;;;;;;6240496;28;20037;-70
2023/06/08 01:40:12;;;;;;;7.82;4.45;;;23.70;48.60;;;;;;6240747;28;20367;-69
2023/06/08 01:43:16;;;;;;;6.63;4.13;;;23.70;48.60;;;;;;6240829;28;20033;-68
2023/06/08 01:46:20;;;;;;;6.30;4.28;;;23.60;48.60;;;;;;6241096;28;20378;-68
2023/06/08 01:49:23;;;;;;;6.68;4.30;;;23.60;48.60;;;;;;6239391;28;20112;-69
2023/06/08 01:52:23;;;;;;;6.80;4.18;;;23.60;48.70;;;;;;6211004;28;20525;-67
2023/06/08 01:55:25;;;;;;;5.30;3.78;;;23.60;48.80;;;;;;6198776;28;20044;-68
2023/06/08 01:58:26;;;;;;;6.53;4.15;;;23.50;48.80;;;;;;6240985;28;20071;-69
2023/06/08 02:01:27;;;;;;;6.65;4.40;;;23.50;48.90;;;;;;6255053;28;20056;-68
2023/06/08 02:04:28;;;;;;;9.50;4.10;;;23.50;49.00;;;;;;6239219;28;20040;-68
2023/06/08 02:07:29;;;;;;;7.40;4.35;;;23.50;49.10;;;;;;6239446;28;20072;-69
2023/06/08 02:10:30;;;;;;;8.00;4.60;;;23.50;49.00;;;;;;6241053;28;20033;-69
2023/06/08 02:13:34;;;;;;;6.10;4.20;;;23.50;49.10;;;;;;6222361;28;20037;-69
2023/06/08 02:16:35;;;;;;;9.82;4.32;;;23.50;49.20;;;;;;6239083;28;20052;-69
2023/06/08 02:19:36;;;;;;;6.53;3.92;;;23.50;49.30;;;;;;6239677;28;20596;-69
2023/06/08 02:22:38;;;;;;;7.20;4.07;;;23.50;49.20;;;;;;6238680;28;20021;-69
2023/06/08 02:25:39;;;;;;;5.38;3.20;;;23.50;49.30;;;;;;6238650;28;20027;-69
2023/06/08 02:28:40;;;;;;;8.07;3.72;;;23.50;49.40;;;;;;6240621;28;20042;-69
2023/06/08 02:31:40;;;;;;;8.40;3.95;;;23.40;49.40;;;;;;6238458;28;20033;-69
2023/06/08 02:34:44;;;;;;;7.30;4.05;;;23.40;49.60;;;;;;6240080;28;20573;-68
2023/06/08 02:37:46;;;;;;;6.00;3.70;;;23.30;49.60;;;;;;6238385;28;20557;-68
2023/06/08 02:40:47;;;;;;;8.65;4.25;;;23.30;49.70;;;;;;6240005;28;20025;-69
2023/06/08 02:43:49;;;;;;;17.27;4.10;;;23.30;49.90;;;;;;6237980;28;20041;-68
2023/06/08 02:46:50;;;;;;;5.25;3.38;;;23.20;50.00;;;;;;6238252;28;20029;-68
2023/06/08 02:49:51;;;;;;;4.70;3.03;;;23.20;50.10;;;;;;6238068;28;20327;-68
2023/06/08 02:52:52;;;;;;;6.00;3.80;;;23.10;50.20;;;;;;6228779;28;20029;-68
2023/06/08 02:55:54;;;;;;;5.13;3.55;;;23.10;50.30;;;;;;6238057;28;20104;-69
2023/06/08 02:58:58;;;;;;;6.50;4.13;;;23.10;50.40;;;;;;6238271;28;20038;-69
2023/06/08 03:01:59;;;;;;;6.22;3.17;;;23.10;50.50;;;;;;6237439;28;20033;-69
2023/06/08 03:05:06;;;;;;;15.00;3.67;;;23.10;50.70;;;;;;6238024;28;20029;-68
2023/06/08 03:08:08;;;;;;;10.02;4.35;;;23.00;50.70;;;;;;6221552;28;20107;-68
2023/06/08 03:11:09;;;;;;;5.13;3.47;;;23.00;50.80;;;;;;6237083;28;20218;-68
2023/06/08 03:14:12;;;;;;;5.70;3.42;;;22.90;50.90;;;;;;6221578;28;20087;-68
2023/06/08 03:17:13;;;;;;;7.40;3.72;;;22.90;50.90;;;;;;6239395;28;20331;-68
2023/06/08 03:20:18;;;;;;;6.75;3.88;;;22.90;51.00;;;;;;6237252;28;20029;-68
2023/06/08 03:23:28;;;;;;;6.00;3.67;;;22.90;50.90;;;;;;6237139;28;20036;-69
2023/06/08 03:26:30;;;;;;;6.07;3.70;;;22.90;51.00;;;;;;6237605;28;20498;-69
2023/06/08 03:29:33;;;;;;;5.43;3.55;;;22.90;51.00;;;;;;6237888;28;20033;-69
2023/06/08 03:32:37;;;;;;;9.50;4.00;;;23.00;51.20;;;;;;6237176;28;20091;-69
2023/06/08 03:35:39;;;;;;;9.02;3.63;;;23.00;51.50;;;;;;6237680;28;20837;-68
2023/06/08 03:38:55;;;;;;;13.50;4.05;;;23.00;51.60;;;;;;6237488;28;20086;-68
2023/06/08 03:41:56;;;;;;;5.53;3.90;;;22.90;51.50;;;;;;6238567;28;20033;-69
2023/06/08 03:45:00;;;;;;;7.38;4.05;;;22.90;51.70;;;;;;6237111;28;20034;-68
2023/06/08 03:48:02;;;;;;;8.73;4.22;;;23.00;51.80;;;;;;6238874;28;20029;-68
2023/06/08 03:51:05;;;;;;;6.38;4.00;;;22.90;51.90;;;;;;6213992;28;20120;-68
2023/06/08 03:54:09;;;;;;;6.47;4.20;;;22.90;52.10;;;;;;6221232;28;20844;-69
2023/06/08 03:57:10;;;;;;;9.80;4.10;;;22.90;52.20;;;;;;6222713;28;20022;-68
2023/06/08 04:00:13;;;;;;;7.78;5.20;;;22.90;52.30;;;;;;6212855;28;20133;-68
2023/06/08 04:03:17;;;;;;;15.50;8.60;;;22.80;52.20;;;;;;6214166;28;20439;-69
2023/06/08 04:06:18;;;;;;;12.05;7.93;;;22.80;52.40;;;;;;6212988;28;20030;-70
2023/06/08 04:09:21;;;;;;;9.43;5.18;;;22.80;52.60;;;;;;6197284;28;20045;-68
2023/06/08 04:12:22;;;;;;;6.18;4.13;;;22.70;52.90;;;;;;6212435;28;20422;-68
2023/06/08 04:15:23;;;;;;;6.95;4.43;;;22.70;52.80;;;;;;6229144;28;20635;-68
2023/06/08 04:18:24;;;;;;;7.38;4.35;;;22.70;52.80;;;;;;6216286;28;20025;-68
2023/06/08 04:21:26;;;;;;;8.60;4.53;;;22.70;52.90;;;;;;6237006;28;20039;-68
2023/06/08 04:24:33;;;;;;;7.75;4.10;;;22.60;52.90;;;;;;6241243;28;20044;-68
2023/06/08 04:27:35;;;;;;;8.27;4.55;;;22.60;52.80;;;;;;6225464;28;20025;-69
2023/06/08 04:30:36;;;;;;;10.15;4.47;;;22.60;52.80;;;;;;6241888;28;20032;-68
2023/06/08 04:33:38;;;;;;;8.48;4.13;;;22.50;52.80;;;;;;6233196;28;20087;-68
2023/06/08 04:36:44;;;;;;;7.57;4.15;;;22.50;52.80;;;;;;6233748;28;20044;-68
2023/06/08 04:39:48;;;;;;;7.25;4.28;;;22.50;52.90;;;;;;6233549;28;20033;-69
2023/06/08 04:42:51;;;;;;;9.98;4.10;;;22.50;53.20;;;;;;6232861;28;20402;-69
2023/06/08 04:45:59;;;;;;;7.53;4.45;;;22.50;52.90;;;;;;6228049;28;20021;-69
2023/06/08 04:49:01;;;;;;;8.35;4.30;;;22.50;52.90;;;;;;6241650;28;20025;-69
2023/06/08 04:52:02;;;;;;;8.25;3.75;;;22.50;52.80;;;;;;6241362;28;20033;-69
2023/06/08 04:55:03;;;;;;;7.20;4.20;;;22.50;52.70;;;;;;6241766;28;20578;-68
2023/06/08 04:58:04;;;;;;;9.82;4.45;;;22.60;52.70;;;;;;6241411;28;20059;-68
2023/06/08 05:01:05;;;;;;;7.53;3.85;;;22.60;52.50;;;;;;6240924;28;20025;-70
2023/06/08 05:04:07;;;;;;;10.15;4.43;;;22.60;52.40;;;;;;6249943;28;20037;-69
2023/06/08 05:07:09;;;;;;;5.32;3.72;;;22.70;52.40;;;;;;6216936;28;20040;-69
2023/06/08 05:10:10;;;;;;;6.03;3.92;;;22.70;52.20;;;;;;6237728;28;20095;-69
2023/06/08 05:13:11;;;;;;;7.95;4.18;;;22.70;52.10;;;;;;6251688;28;20025;-70
2023/06/08 05:16:12;;;;;;;12.85;4.53;;;22.80;52.10;;;;;;6241220;28;20030;-70
2023/06/08 05:19:13;;;;;;;12.30;4.38;;;22.70;52.00;;;;;;6242379;28;20456;-69
2023/06/08 05:22:14;;;;;;;6.45;4.18;;;22.80;52.00;;;;;;6241616;28;20079;-67
2023/06/08 05:25:15;;;;;;;6.70;4.55;;;22.70;51.90;;;;;;6246937;28;20045;-69
2023/06/08 05:28:17;;;;;;;7.13;3.97;;;22.70;51.90;;;;;;6250701;28;20033;-69
2023/06/08 05:31:18;;;;;;;6.50;4.00;;;22.70;51.90;;;;;;6239955;28;20041;-67
2023/06/08 05:34:19;;;;;;;7.45;4.18;;;22.70;51.90;;;;;;6234569;28;20033;-68
2023/06/08 05:37:20;;;;;;;6.05;4.10;;;22.80;51.80;;;;;;6256600;28;20162;-70
2023/06/08 05:40:21;;;;;;;8.75;4.03;;;22.80;51.70;;;;;;6264987;28;20043;-70
2023/06/08 05:43:22;;;;;;;7.60;4.60;;;22.90;51.70;;;;;;6237072;28;20033;-69
2023/06/08 05:46:22;;;;;;;8.50;4.10;;;23.00;51.50;;;;;;6248801;28;20033;-71
2023/06/08 05:49:24;;;;;;;8.35;4.72;;;23.00;51.30;;;;;;6238277;28;20022;-69
2023/06/08 05:52:25;;;;;;;11.73;4.82;;;23.10;51.30;;;;;;6221362;28;20089;-69
2023/06/08 05:55:26;;;;;;;7.32;3.92;;;23.10;51.30;;;;;;6230548;28;20036;-70
2023/06/08 05:58:27;;;;;;;10.30;4.68;;;23.20;51.20;;;;;;6253354;28;20041;-70
2023/06/08 06:01:28;;;;;;;10.27;4.72;;;23.20;51.00;;;;;;6263333;28;20505;-69
2023/06/08 06:04:29;;;;;;;7.47;4.57;;;23.30;50.90;;;;;;6265754;28;20771;-70
2023/06/08 06:07:30;;;;;;;6.85;3.83;;;23.40;50.80;;;;;;6265707;28;20130;-68
2023/06/08 06:10:31;;;;;;;9.63;4.28;;;23.40;50.60;;;;;;6264778;28;20092;-69
2023/06/08 06:13:32;;;;;;;8.27;4.40;;;23.40;50.40;;;;;;6238942;28;20116;-70
2023/06/08 06:16:33;;;;;;;10.02;4.38;;;23.60;50.40;;;;;;6240679;28;20129;-69
2023/06/08 06:19:36;;;;;;;9.50;4.63;;;23.70;50.30;;;;;;6240818;28;20036;-69
2023/06/08 06:22:37;;;;;;;6.32;4.05;;;23.70;50.40;;;;;;6240437;28;20060;-69
2023/06/08 06:25:43;;;;;;;13.90;4.88;;;23.70;50.60;;;;;;6238596;28;20513;-70
2023/06/08 06:28:44;;;;;;;10.35;4.93;;;23.70;50.70;;;;;;6241012;28;20179;-70
2023/06/08 06:31:45;;;;;;;14.70;4.65;;;23.70;50.70;;;;;;6240307;28;20037;-69
2023/06/08 06:34:45;;;;;;;13.98;5.18;;;23.80;50.60;;;;;;6240361;28;20053;-69
2023/06/08 06:37:49;;;;;;;9.82;5.13;;;23.80;50.50;;;;;;6240309;28;20030;-70
2023/06/08 06:40:52;;;;;;;8.68;4.70;;;23.80;50.40;;;;;;6240621;28;20120;-71
2023/06/08 06:43:53;;;;;;;8.82;5.28;;;23.80;50.30;;;;;;6239453;28;20746;-69
2023/06/08 06:46:54;;;;;;;15.27;5.38;;;23.80;50.30;;;;;;6221519;28;20033;-68
2023/06/08 06:49:56;;;;;;;12.75;4.70;;;24.00;50.00;;;;;;6241034;28;20034;-69
2023/06/08 06:52:56;;;;;;;9.63;4.70;;;24.10;49.70;;;;;;6224385;28;20411;-68
2023/06/08 06:55:57;;;;;;;9.90;5.22;;;24.30;49.50;;;;;;6218889;28;20045;-70
2023/06/08 06:58:59;;;;;;;9.18;4.70;;;24.40;49.20;;;;;;6222357;28;20056;-69
2023/06/08 07:02:02;;;;;;;17.88;4.25;;;24.50;49.10;;;;;;6238537;28;20035;-69
2023/06/08 07:05:19;;;;;;;14.43;5.40;;;24.60;48.90;;;;;;6238727;28;20528;-69
2023/06/08 07:08:20;;;;;;;9.10;4.32;;;24.70;48.80;;;;;;6240203;28;20480;-70
2023/06/08 07:11:21;;;;;;;12.50;4.32;;;24.80;48.60;;;;;;6240661;28;20029;-69
2023/06/08 07:14:21;;;;;;;9.27;4.57;;;24.90;49.10;;;;;;6242369;28;20163;-68
2023/06/08 07:17:22;;;;;;;17.35;4.88;;;25.00;48.20;;;;;;6240242;28;20030;-69
2023/06/08 07:20:23;;;;;;;13.02;5.50;;;25.10;47.90;;;;;;6239043;28;20037;-68
2023/06/08 07:23:24;;;;;;;10.77;4.82;;;25.10;47.60;;;;;;6238630;28;20040;-69
2023/06/08 07:26:26;;;;;;;8.10;4.95;;;25.10;47.50;;;;;;6237936;28;20154;-69
2023/06/08 07:29:26;;;;;;;14.38;5.22;;;25.20;47.60;;;;;;6238169;28;20040;-69
2023/06/08 07:32:30;;;;;;;8.32;4.53;;;25.30;47.40;;;;;;6238751;28;20442;-70
2023/06/08 07:35:31;;;;;;;6.57;4.38;;;25.30;47.10;;;;;;6237536;28;20103;-71
2023/06/08 07:38:32;;;;;;;16.02;4.45;;;25.40;47.00;;;;;;6239010;28;20037;-70
2023/06/08 07:41:32;;;;;;;7.32;4.40;;;25.50;46.90;;;;;;6236964;28;20037;-70
2023/06/08 07:44:33;;;;;;;16.52;4.63;;;25.60;46.80;;;;;;6238889;28;20036;-70
2023/06/08 07:47:34;;;;;;;14.40;4.90;;;25.70;46.70;;;;;;6239090;28;20523;-69
2023/06/08 07:50:35;;;;;;;7.20;4.72;;;25.90;46.50;;;;;;6239057;28;20030;-71
2023/06/08 07:53:37;;;;;;;11.68;4.80;;;26.00;46.20;;;;;;6217523;28;20482;-70
2023/06/08 07:56:39;;;;;;;7.75;4.60;;;26.20;45.90;;;;;;6223319;28;20041;-70
2023/06/08 07:59:42;;;;;;;8.15;4.75;;;26.30;45.60;;;;;;6225703;28;20041;-70
2023/06/08 08:02:43;;;;;;;6.50;4.88;;;26.40;45.50;;;;;;6243760;28;20068;-70
2023/06/08 08:05:44;;;;;;;7.88;4.57;;;26.60;45.20;;;;;;6242161;28;20390;-69
2023/06/08 08:08:49;;;;;;;7.38;4.53;;;26.70;44.70;;;;;;6242247;28;20113;-70
2023/06/08 08:11:51;;;;;;;17.77;5.55;;;26.70;44.60;;;;;;6225111;28;20033;-69
2023/06/08 08:14:51;;;;;;;9.73;4.63;;;26.70;44.70;;;;;;6241685;28;20052;-70
2023/06/08 08:17:52;;;;;;;9.63;4.47;;;26.70;44.50;;;;;;6243827;28;20049;-69
2023/06/08 08:20:53;;;;;;;11.70;4.85;;;26.70;44.40;;;;;;6242173;28;20029;-68
2023/06/08 08:23:54;;;;;;;13.25;4.72;;;26.80;44.40;;;;;;6241180;28;20053;-69
2023/06/08 08:26:55;;;;;;;9.07;4.35;;;26.90;44.20;;;;;;6241603;28;20034;-69
2023/06/08 08:29:56;;;;;;;11.18;4.25;;;27.00;43.90;;;;;;6241802;28;20022;-70
2023/06/08 08:32:57;;;;;;;7.90;4.55;;;27.20;43.70;;;;;;6233682;28;20026;-69
2023/06/08 08:35:57;;;;;;;6.55;4.72;;;27.30;43.30;;;;;;6242239;28;20441;-70
2023/06/08 08:39:00;;;;;;;10.80;4.78;;;27.40;43.10;;;;;;6243288;28;20090;-68
2023/06/08 08:42:07;;;;;;;11.55;4.85;;;27.40;42.90;;;;;;6240693;28;20034;-69
2023/06/08 08:45:09;;;;;;;8.60;4.43;;;27.40;42.60;;;;;;6243000;28;20457;-70
2023/06/08 08:48:14;;;;;;;6.43;4.20;;;27.40;42.60;;;;;;6243056;28;20552;-71
2023/06/08 08:51:22;;;;;;;7.47;4.68;;;27.50;42.50;;;;;;6241348;28;20026;-70
2023/06/08 08:54:31;;;;;;;7.03;4.13;;;27.60;42.50;;;;;;6218208;28;20067;-70
2023/06/08 08:57:33;;;;;;;14.25;4.13;;;27.80;42.10;;;;;;6235038;28;20038;-70
2023/06/08 09:00:35;;;;;;;8.48;4.68;;;28.00;41.90;;;;;;6225032;28;20069;-70
2023/06/08 09:03:36;;;;;;;11.32;4.68;;;28.00;41.60;;;;;;6241455;28;20037;-69
2023/06/08 09:06:36;;;;;;;13.50;3.85;;;28.20;41.50;;;;;;6241437;28;20048;-70
2023/06/08 09:09:37;;;;;;;27.55;4.60;;;28.30;41.10;;;;;;6242207;28;20017;-69
2023/06/08 09:12:42;;;;;;;6.75;4.45;;;28.40;40.90;;;;;;6242391;28;20534;-69
2023/06/08 09:15:46;;;;;;;5.65;3.47;;;28.40;40.60;;;;;;6242649;28;20216;-70
2023/06/08 09:19:03;;;;;;;6.15;3.72;;;28.40;40.50;;;;;;6242189;28;20116;-70
2023/06/08 09:22:04;;;;;;;8.18;3.95;;;28.40;40.30;;;;;;6241867;28;20041;-71
2023/06/08 09:25:09;;;;;;;6.55;4.25;;;28.30;40.30;;;;;;6242112;28;20433;-70
2023/06/08 09:28:14;;;;;;;6.85;4.13;;;28.30;40.30;;;;;;6242272;28;20162;-70
2023/06/08 09:31:16;;;;;;;5.30;3.67;;;28.20;40.30;;;;;;6241963;28;20091;-69
2023/06/08 09:34:16;;;;;;;8.02;4.22;;;28.20;40.30;;;;;;6232451;28;20113;-71
2023/06/08 09:37:19;;;;;;;6.50;3.97;;;28.30;40.30;;;;;;6218073;28;20406;-70
2023/06/08 09:40:22;;;;;;;6.18;4.05;;;28.40;40.30;;;;;;6217302;28;20041;-71
2023/06/08 09:43:36;;;;;;;12.68;3.92;;;28.50;40.40;;;;;;6215239;28;20030;-70
2023/06/08 09:46:39;;;;;;;8.05;4.65;;;28.50;40.50;;;;;;6215960;28;20403;-69
2023/06/08 09:49:40;;;;;;;7.93;4.10;;;28.70;40.50;;;;;;6232502;28;20076;-69
2023/06/08 09:52:44;;;;;;;7.13;3.83;;;28.80;40.30;;;;;;6230634;28;20104;-70
2023/06/08 09:55:46;;;;;;;9.18;3.85;;;28.90;39.90;;;;;;6224312;28;20116;-71
2023/06/08 09:58:48;;;;;;;5.80;4.13;;;29.00;39.70;;;;;;6240127;28;20041;-70
2023/06/08 10:02:02;;;;;;;5.60;3.95;;;29.10;39.60;;;;;;6222919;28;20047;-69
2023/06/08 10:05:12;;;;;;;9.77;4.30;;;29.20;39.40;;;;;;6242016;28;20083;-71
2023/06/08 10:08:19;;;;;;;5.50;4.03;;;29.20;39.40;;;;;;6241284;28;20112;-69
2023/06/08 10:11:22;;;;;;;;;;;29.30;39.30;;;;;;6241221;28;20025;-68
2023/06/08 10:14:26;;;;;;;6.28;3.92;;;29.40;39.00;;;;;;6240820;28;19992;-69
2023/06/08 10:17:29;;;;;;;5.03;3.30;;;29.50;38.80;;;;;;6240669;28;20528;-70
2023/06/08 10:20:31;;;;;;;7.22;4.20;;;29.70;38.70;;;;;;6240073;28;20513;-70
2023/06/08 10:23:33;;;;;;;6.28;3.83;;;29.80;38.30;;;;;;6239608;28;20029;-70
2023/06/08 10:26:34;;;;;;;13.18;3.95;;;30.00;38.30;;;;;;6240205;28;20037;-70
2023/06/08 10:29:35;;;;;;;7.10;4.57;;;30.20;38.20;;;;;;6240374;28;20404;-69
2023/06/08 10:32:42;;;;;;;9.85;4.32;;;30.30;38.20;;;;;;6238421;28;20132;-69
2023/06/08 10:36:06;;;;;;;10.30;4.57;;;30.30;38.60;;;;;;6238699;28;20040;-69
2023/06/08 10:39:10;;;;;;;5.68;3.75;;;30.30;38.90;;;;;;6238705;28;20102;-68
2023/06/08 10:42:18;;;;;;;6.07;4.20;;;30.30;38.90;;;;;;6239727;28;20111;-70
2023/06/08 10:45:33;;;;;;;12.75;4.30;;;30.20;39.00;;;;;;6222169;28;20559;-69
2023/06/08 10:48:37;;;;;;;7.38;3.65;;;30.10;39.00;;;;;;6238588;28;20780;-71
2023/06/08 10:51:44;;;;;;;6.05;4.22;;;30.00;39.20;;;;;;6240037;28;20697;-70
2023/06/08 10:54:56;;;;;;;7.53;3.90;;;30.00;39.40;;;;;;6214186;28;20391;-70
2023/06/08 10:58:19;;;;;;;8.48;4.28;;;30.10;39.30;;;;;;6236912;28;20029;-71
2023/06/08 11:01:21;;;;;;;7.85;4.30;;;30.20;39.20;;;;;;6221387;28;20041;-70
2023/06/08 11:04:26;;;;;;;6.07;3.65;;;30.20;38.90;;;;;;6239583;28;20064;-70
2023/06/08 11:07:27;;;;;;;8.15;3.83;;;30.10;38.50;;;;;;6238477;28;20028;-69
2023/06/08 11:10:32;;;;;;;7.78;3.58;;;30.00;38.30;;;;;;6237969;28;20390;-71
2023/06/08 11:13:33;;;;;;;9.40;3.63;;;30.00;38.20;;;;;;6237204;28;20025;-70
2023/06/08 11:16:34;;;;;;;5.68;3.70;;;30.10;38.00;;;;;;6238068;28;20045;-69
2023/06/08 11:19:35;;;;;;;6.18;3.20;;;30.80;37.20;;;;;;6230186;28;20049;-70
2023/06/08 11:22:40;;;;;;;5.63;2.90;;;31.80;35.40;;;;;;6220694;28;20068;-70
2023/06/08 11:25:44;;;;;;;4.25;3.17;;;32.60;34.10;;;;;;6239470;28;20517;-70
2023/06/08 11:28:45;;;;;;;8.65;3.63;;;33.20;32.80;;;;;;6238931;28;20026;-71
2023/06/08 11:31:46;;;;;;;4.60;3.33;;;33.80;32.00;;;;;;6237007;28;20523;-70
2023/06/08 11:34:49;;;;;;;6.10;3.90;;;34.30;31.70;;;;;;6238732;28;20037;-70
2023/06/08 11:37:51;;;;;;;6.30;3.05;;;34.70;31.10;;;;;;6238411;28;20045;-71
2023/06/08 11:40:57;;;;;;;7.28;3.25;;;35.10;30.90;;;;;;6237733;28;20041;-69
2023/06/08 11:43:57;;;;;;;5.53;3.30;;;35.50;30.50;;;;;;6238598;28;20149;-70
2023/06/08 11:46:58;;;;;;;3.88;3.00;;;35.90;30.20;;;;;;6238895;28;20481;-70
2023/06/08 11:50:03;;;;;;;4.65;2.97;;;36.00;29.90;;;;;;6237194;28;20037;-71
2023/06/08 11:53:04;;;;;;;4.50;3.45;;;36.10;29.80;;;;;;6238466;28;20025;-71
2023/06/08 11:56:06;;;;;;;3.80;3.13;;;36.10;29.80;;;;;;6237053;28;20033;-71
2023/06/08 11:59:07;;;;;;;4.25;3.30;;;36.00;29.90;;;;;;6238460;28;20036;-71
2023/06/08 12:02:11;;;;;;;3.75;3.20;;;35.70;29.90;;;;;;6238007;28;20072;-70
2023/06/08 12:05:17;;;;;;;5.20;2.97;;;35.20;30.30;;;;;;6238679;28;20025;-70
2023/06/08 12:08:19;;;;;;;4.70;2.95;;;35.10;30.40;;;;;;6238534;28;20029;-70
2023/06/08 12:11:21;;;;;;;5.25;3.13;;;35.10;30.20;;;;;;6238555;28;20041;-71
2023/06/08 12:14:21;;;;;;;7.45;3.50;;;34.70;30.50;;;;;;6238288;28;20076;-70
2023/06/08 12:17:27;;;;;;;4.72;2.97;;;34.00;31.30;;;;;;6236461;28;20168;-71
2023/06/08 12:20:34;;;;;;;4.38;3.15;;;33.50;32.40;;;;;;6236525;28;20173;-70
2023/06/08 12:23:35;;;;;;;5.32;2.83;;;33.60;32.70;;;;;;6219849;28;20026;-70
2023/06/08 12:26:36;;;;;;;6.72;3.20;;;34.00;32.30;;;;;;6238208;28;20025;-70
2023/06/08 12:29:37;;;;;;;5.47;3.28;;;34.40;31.80;;;;;;6236901;28;20504;-70
2023/06/08 12:32:38;;;;;;;5.93;3.50;;;34.80;31.20;;;;;;6236704;28;20104;-69
2023/06/08 12:35:40;;;;;;;6.20;2.90;;;35.20;30.80;;;;;;6238224;28;20046;-71
2023/06/08 12:38:41;;;;;;;5.18;3.22;;;35.50;30.40;;;;;;6238234;28;20034;-70
2023/06/08 12:41:42;;;;;;;3.83;2.67;;;35.70;30.20;;;;;;6237686;28;20154;-70
2023/06/08 12:44:43;;;;;;;5.50;3.53;;;36.10;30.00;;;;;;6221504;28;20049;-69
2023/06/08 12:47:45;;;;;;;4.32;3.53;;;36.50;29.10;;;;;;6242501;28;20045;-71
2023/06/08 12:50:46;;;;;;;4.38;3.08;;;36.90;28.60;;;;;;6240862;28;20084;-69
2023/06/08 12:53:47;;;;;;;5.25;2.90;;;37.10;28.00;;;;;;6242195;28;20108;-71
2023/06/08 12:56:47;;;;;;;4.85;2.80;;;37.00;27.70;;;;;;6240670;28;20513;-71
2023/06/08 12:59:48;;;;;;;4.90;3.25;;;37.20;27.70;;;;;;6224191;28;20497;-70
2023/06/08 13:02:51;;;;;;;4.40;3.22;;;37.50;27.30;;;;;;6241855;28;20041;-69
2023/06/08 13:05:52;;;;;;;3.90;2.90;;;37.80;27.30;;;;;;6242158;28;20405;-70
2023/06/08 13:08:53;;;;;;;4.38;3.08;;;38.20;26.80;;;;;;6240555;28;20087;-71
2023/06/08 13:11:54;;;;;;;4.68;3.85;;;38.60;26.40;;;;;;6240046;28;20128;-70
2023/06/08 13:14:55;;;;;;;10.50;3.30;;;39.00;25.90;;;;;;6239574;28;20091;-70
2023/06/08 13:17:57;;;;;;;14.00;3.67;;;39.60;25.60;;;;;;6239740;28;20567;-71
2023/06/08 13:20:58;;;;;;;3.78;2.90;;;39.80;25.20;;;;;;6241969;28;20033;-71
2023/06/08 13:24:01;;;;;;;5.03;3.60;;;40.10;25.00;;;;;;6241691;28;20432;-71
2023/06/08 13:27:02;;;;;;;4.20;3.42;;;40.40;24.80;;;;;;6239884;28;20068;-70
2023/06/08 13:30:03;;;;;;;4.93;3.53;;;40.70;24.40;;;;;;6241634;28;20025;-71
2023/06/08 13:33:04;;;;;;;4.45;3.22;;;40.80;24.20;;;;;;6241049;28;20029;-71
2023/06/08 13:36:05;;;;;;;5.70;4.03;;;39.90;24.70;;;;;;6241306;28;20053;-70
2023/06/08 13:39:07;;;;;;;5.90;3.95;;;38.80;25.80;;;;;;6241703;28;20466;-71
2023/06/08 13:42:08;;;;;;;11.85;4.05;;;37.50;27.00;;;;;;6239625;28;20029;-70
2023/06/08 13:45:12;;;;;;;5.32;3.78;;;36.30;28.10;;;;;;6239856;28;20446;-70
2023/06/08 13:48:13;;;;;;;9.43;4.53;;;35.70;28.80;;;;;;6240951;28;20033;-70
2023/06/08 13:51:14;;;;;;;8.20;4.22;;;35.20;29.30;;;;;;6239543;28;20049;-71
2023/06/08 13:54:15;;;;;;;6.43;4.50;;;34.50;30.60;;;;;;6223422;28;20040;-70
2023/06/08 13:57:16;;;;;;;9.55;5.03;;;33.90;31.20;;;;;;6240838;28;20029;-70
2023/06/08 14:00:17;;;;;;;6.63;4.57;;;33.30;32.30;;;;;;6241285;28;20470;-71
2023/06/08 14:03:18;;;;;;;9.57;4.63;;;32.80;33.20;;;;;;6240922;28;20104;-70
2023/06/08 14:06:20;;;;;;;5.15;4.07;;;32.60;33.70;;;;;;6239684;28;20575;-72
2023/06/08 14:09:21;;;;;;;8.98;4.53;;;33.70;32.80;;;;;;6239309;28;20127;-69
2023/06/08 14:12:22;;;;;;;10.80;4.60;;;35.60;30.70;;;;;;6240393;28;20037;-70
2023/06/08 14:15:24;;;;;;;5.13;3.58;;;37.00;28.90;;;;;;6240624;28;20023;-70
2023/06/08 14:18:25;;;;;;;8.13;5.00;;;38.40;27.80;;;;;;6240340;28;20075;-70
2023/06/08 14:21:26;;;;;;;6.43;4.07;;;39.50;26.70;;;;;;6231541;28;20021;-70
2023/06/08 14:24:27;;;;;;;6.03;3.92;;;40.00;25.80;;;;;;6240293;28;20028;-71
2023/06/08 14:27:28;;;;;;;6.45;4.07;;;40.60;25.20;;;;;;6231008;28;20075;-70
2023/06/08 14:30:29;;;;;;;6.22;4.00;;;41.00;24.80;;;;;;6240389;28;20033;-71
2023/06/08 14:33:30;;;;;;;4.88;4.13;;;41.30;24.30;;;;;;6232835;28;20029;-71
2023/06/08 14:36:31;;;;;;;7.60;4.15;;;41.30;24.10;;;;;;6239756;28;20053;-70
2023/06/08 14:39:35;;;;;;;5.32;3.67;;;41.30;24.10;;;;;;6239629;28;20186;-71
2023/06/08 14:42:36;;;;;;;7.78;3.30;;;41.20;24.20;;;;;;6239820;28;20661;-70
2023/06/08 14:45:37;;;;;;;4.82;3.60;;;41.30;24.00;;;;;;6240540;28;20030;-70
2023/06/08 14:48:38;;;;;;;5.00;3.95;;;41.10;23.90;;;;;;6238157;28;20476;-70
2023/06/08 14:51:39;;;;;;;7.18;3.22;;;41.00;23.90;;;;;;6238052;28;20032;-71
2023/06/08 14:54:41;;;;;;;4.50;3.22;;;41.00;23.90;;;;;;6239069;28;20037;-69
2023/06/08 14:57:42;;;;;;;6.70;3.70;;;40.90;23.80;;;;;;6239622;28;20032;-71
2023/06/08 15:00:43;;;;;;;8.02;2.97;;;40.30;24.10;;;;;;6239430;28;20108;-70
2023/06/08 15:03:43;;;;;;;3.83;3.40;;;39.20;25.10;;;;;;6239455;28;20033;-71
2023/06/08 15:06:44;;;;;;;6.38;3.00;;;38.50;25.70;;;;;;6237103;28;20103;-70
2023/06/08 15:09:45;;;;;;;5.63;3.40;;;38.50;25.80;;;;;;6221066;28;20386;-72
2023/06/08 15:12:46;;;;;;;3.55;3.22;;;38.70;25.50;;;;;;6237348;28;20033;-71
2023/06/08 15:15:47;;;;;;;4.38;3.20;;;38.90;25.20;;;;;;6239280;28;20045;-71
2023/06/08 15:18:48;;;;;;;3.33;2.80;;;38.80;25.40;;;;;;6239438;28;20520;-70
2023/06/08 15:21:49;;;;;;;6.57;3.15;;;38.60;25.40;;;;;;6237472;28;20033;-70
2023/06/08 15:24:50;;;;;;;3.97;3.00;;;38.50;25.40;;;;;;6239068;28;20037;-70
2023/06/08 15:27:52;;;;;;;3.83;2.97;;;38.50;25.50;;;;;;6239432;28;20108;-70
2023/06/08 15:30:53;;;;;;;4.70;2.72;;;38.40;25.50;;;;;;6237479;28;20025;-70
2023/06/08 15:33:54;;;;;;;6.85;3.25;;;38.30;25.60;;;;;;6238689;28;20542;-70
2023/06/08 15:36:55;;;;;;;4.13;2.97;;;38.50;25.30;;;;;;6237179;28;20111;-71
2023/06/08 15:40:00;;;;;;;7.32;2.83;;;38.70;25.10;;;;;;6239019;28;20029;-71
2023/06/08 15:43:01;;;;;;;9.07;2.80;;;38.80;24.80;;;;;;6238480;28;20618;-70
2023/06/08 15:46:02;;;;;;;5.60;3.10;;;39.00;24.80;;;;;;6239417;28;20033;-71
2023/06/08 15:49:03;;;;;;;3.60;2.78;;;39.30;24.50;;;;;;6238500;28;20056;-72